Time;durP1;ratioP1;P1;durP2;ratioP2;P2;SDS_P1;SDS_P2;PMS_P1;PMS_P2;Temp;Humidity;BMP_temperature;BMP_pressure;BME280_temperature;BME280_humidity;BME280_pressure;Samples;Min_cycle;Max_cycle;Signal;HPM_P1;HPM_P2
2022/12/13 00:00:32;;;;;;;35.23;18.43;;;;;;;17.06;51.91;99171.78;4965497;28;20110;-62
2022/12/13 00:03:08;;;;;;;32.50;18.13;;;;;;;17.06;51.34;99190.75;4965558;28;20061;-61
2022/12/13 00:05:57;;;;;;;36.10;17.90;;;;;;;17.02;52.68;99187.72;4965398;28;20054;-62
2022/12/13 00:08:40;;;;;;;35.85;18.38;;;;;;;16.96;51.71;99191.41;4965700;28;20546;-63
2022/12/13 00:11:29;;;;;;;39.28;19.52;;;;;;;17.06;51.86;99195.38;4965694;28;20058;-62
2022/12/13 00:14:21;;;;;;;38.53;20.17;;;;;;;17.00;49.49;99183.59;4965507;28;20053;-62
2022/12/13 00:17:03;;;;;;;44.45;22.52;;;;;;;17.02;50.20;99190.44;4965959;28;20047;-62
2022/12/13 00:19:55;;;;;;;45.85;21.60;;;;;;;17.09;50.91;99190.28;4965395;28;20558;-63
2022/12/13 00:22:38;;;;;;;42.67;23.30;;;;;;;17.10;49.02;99197.34;4965888;28;20135;-62
2022/12/13 00:25:27;;;;;;;52.53;23.45;;;;;;;17.09;49.14;99197.59;4963386;28;20130;-62
2022/12/13 00:28:09;;;;;;;47.45;23.83;;;;;;;16.98;49.91;99199.28;4965021;28;20141;-63
2022/12/13 00:31:03;;;;;;;43.58;22.92;;;;;;;17.09;49.26;99190.28;4965441;28;20051;-63
2022/12/13 00:34:05;;;;;;;43.38;22.35;;;;;;;17.24;49.26;99207.91;4946606;28;20062;-62
2022/12/13 00:36:57;;;;;;;41.25;21.27;;;;;;;17.22;49.34;99217.09;4964681;28;20060;-63
2022/12/13 00:39:40;;;;;;;41.03;20.45;;;;;;;17.06;48.16;99201.59;4965264;28;20051;-62
2022/12/13 00:42:29;;;;;;;38.13;19.70;;;;;;;17.02;49.00;99205.88;4961549;28;20042;-62
2022/12/13 00:45:11;;;;;;;49.33;21.35;;;;;;;16.99;48.49;99206.38;4968543;28;20054;-62
2022/12/13 00:48:01;;;;;;;37.30;18.17;;;;;;;16.91;48.15;99213.03;4969452;28;20055;-62
2022/12/13 00:50:56;;;;;;;34.92;16.83;;;;;;;16.83;47.04;99214.22;4968387;28;20062;-62
2022/12/13 00:53:32;;;;;;;31.98;17.25;;;;;;;17.22;46.26;99217.09;4968760;28;20047;-62
2022/12/13 00:56:24;;;;;;;29.38;16.63;;;;;;;17.18;46.69;99225.97;4968971;28;20474;-62
2022/12/13 00:59:06;;;;;;;28.13;16.23;;;;;;;17.16;48.09;99228.09;4969237;28;20522;-62
2022/12/13 01:01:55;;;;;;;32.58;16.60;;;;;;;17.20;47.99;99229.25;4968454;28;20531;-63
2022/12/13 01:04:37;;;;;;;35.80;18.52;;;;;;;17.06;47.06;99231.44;4967597;28;20043;-62
2022/12/13 01:07:26;;;;;;;33.08;16.73;;;;;;;17.02;46.68;99239.25;4967424;28;20051;-62
2022/12/13 01:10:09;;;;;;;34.58;17.10;;;;;;;17.06;47.06;99236.84;4967899;28;20062;-61
2022/12/13 01:13:04;;;;;;;42.22;18.50;;;;;;;17.35;47.30;99236.81;4963405;28;20051;-62
2022/12/13 01:15:44;;;;;;;34.58;17.92;;;;;;;17.25;47.42;99239.34;4967677;28;20051;-62
2022/12/13 01:18:33;;;;;;;43.97;19.00;;;;;;;17.14;46.28;99243.78;4967812;28;20078;-63
2022/12/13 01:21:25;;;;;;;38.90;19.73;;;;;;;17.13;46.35;99239.44;4964321;28;20078;-62
2022/12/13 01:24:10;;;;;;;37.08;19.52;;;;;;;17.37;46.11;99245.56;4957353;28;20046;-62
2022/12/13 01:27:00;;;;;;;34.72;18.98;;;;;;;17.43;46.75;99247.28;4968504;28;20051;-62
2022/12/13 01:29:42;;;;;;;34.67;18.30;;;;;;;17.55;46.61;99244.47;4963812;28;20047;-62
2022/12/13 01:32:31;;;;;;;28.02;16.02;;;;;;;17.35;45.92;99247.66;4966326;28;20058;-62
2022/12/13 01:35:16;;;;;;;35.72;18.38;;;;;;;17.39;45.97;99257.78;4967722;28;20054;-60
2022/12/13 01:38:05;;;;;;;36.80;18.92;;;;;;;17.42;45.75;99265.47;4966841;28;20109;-62
2022/12/13 01:41:03;;;;;;;43.58;17.83;;;;;;;17.48;46.02;99273.66;4969635;28;20420;-62
2022/12/13 01:44:07;;;;;;;34.65;16.42;;;;;;;17.63;46.17;99287.50;4948011;29;20075;-62
2022/12/13 01:46:43;;;;;;;31.30;16.48;;;;;;;17.70;44.79;99287.34;4948344;29;20070;-62
2022/12/13 01:49:32;;;;;;;34.90;16.87;;;;;;;17.52;46.94;99291.94;4947277;29;20055;-62
2022/12/13 01:52:19;;;;;;;35.00;17.50;;;;;;;17.40;47.18;99297.41;4935795;29;20055;-62
2022/12/13 01:55:08;;;;;;;;;;;;;;;17.40;45.27;99294.69;4948624;28;20054;-62
2022/12/13 01:57:54;;;;;;;35.25;16.67;;;;;;;17.48;44.48;99307.03;4943817;29;20034;-62
2022/12/13 02:00:44;;;;;;;40.85;18.83;;;;;;;17.41;44.46;99306.41;4931269;29;20091;-62
2022/12/13 02:03:28;;;;;;;38.58;19.40;;;;;;;17.37;45.13;99307.94;4946009;29;20062;-63
2022/12/13 02:06:31;;;;;;;41.67;21.35;;;;;;;17.53;44.24;99309.84;4957000;28;20043;-63
2022/12/13 02:09:07;;;;;;;43.17;20.30;;;;;;;17.39;44.58;99312.06;4947699;28;20055;-62
2022/12/13 02:12:03;;;;;;;41.60;20.45;;;;;;;17.31;44.55;99312.47;4948926;28;20061;-63
2022/12/13 02:14:40;;;;;;;42.30;19.63;;;;;;;17.38;44.67;99321.25;4948387;29;20105;-63
2022/12/13 02:18:04;;;;;;;34.60;19.60;;;;;;;17.46;45.23;99324.66;4930159;29;20056;-62
2022/12/13 02:20:45;;;;;;;42.95;19.13;;;;;;;17.13;45.74;99335.16;4933582;29;20067;-62
2022/12/13 02:23:55;;;;;;;42.95;19.13;;;;;;;17.31;45.17;99338.75;4946059;29;20485;-62
2022/12/13 02:26:54;;;;;;;38.25;19.52;;;;;;;17.25;46.00;99343.25;4942153;29;20118;-62
2022/12/13 02:29:49;;;;;;;41.15;19.80;;;;;;;17.36;45.98;99342.38;4945711;29;20054;-62
2022/12/13 02:32:24;;;;;;;39.38;20.00;;;;;;;17.48;45.22;99352.34;4944857;29;20150;-62
2022/12/13 02:35:28;;;;;;;40.93;19.47;;;;;;;17.56;45.67;99357.38;4914619;29;20050;-62
2022/12/13 02:38:17;;;;;;;39.40;19.40;;;;;;;17.50;46.28;99369.22;4945768;29;20081;-63
2022/12/13 02:41:39;;;;;;;44.92;20.10;;;;;;;17.53;45.97;99374.97;4947715;28;20061;-62
2022/12/13 02:44:36;;;;;;;39.42;17.65;;;;;;;17.41;46.34;99380.47;4964810;28;20050;-63
2022/12/13 02:47:29;;;;;;;37.75;17.38;;;;;;;17.39;47.21;99384.50;4949482;28;20534;-63
2022/12/13 02:50:26;;;;;;;42.10;18.08;;;;;;;17.39;46.86;99379.06;4966623;28;20055;-63
2022/12/13 02:53:03;;;;;;;35.58;17.23;;;;;;;17.26;46.77;99385.59;4966558;28;20145;-62
2022/12/13 02:55:53;;;;;;;40.65;16.20;;;;;;;17.55;46.51;99388.31;4964547;28;20098;-63
2022/12/13 02:58:41;;;;;;;34.47;16.17;;;;;;;17.55;47.24;99389.13;4965784;28;20406;-63
2022/12/13 03:01:50;;;;;;;36.88;16.58;;;;;;;17.71;46.99;99390.25;4961907;28;20055;-63
2022/12/13 03:08:31;;;;;;;31.05;14.73;;;;;;;17.92;46.47;99399.63;4964315;28;20430;-64
2022/12/13 03:14:25;;;;;;;38.53;16.80;;;;;;;17.81;46.86;99412.16;4965462;28;20066;-63
2022/12/13 03:17:18;;;;;;;33.20;16.23;;;;;;;17.78;47.04;99407.19;4965920;28;20050;-62
2022/12/13 03:20:08;;;;;;;32.03;16.85;;;;;;;17.89;46.77;99416.38;4964777;28;20046;-62
2022/12/13 03:23:03;;;;;;;33.47;16.38;;;;;;;18.33;46.74;99421.19;4963748;28;20509;-62
2022/12/13 03:25:55;;;;;;;36.15;16.02;;;;;;;18.88;46.45;99420.41;4965180;28;20085;-63
2022/12/13 03:28:38;;;;;;;32.95;15.55;;;;;;;19.23;44.07;99421.94;4963238;28;20050;-63
2022/12/13 03:31:27;;;;;;;36.92;15.43;;;;;;;19.91;44.98;99424.31;4961576;28;20133;-62
2022/12/13 03:34:17;;;;;;;29.08;14.65;;;;;;;20.18;43.72;99432.47;4965440;28;20150;-63
2022/12/13 03:37:25;;;;;;;40.97;15.43;;;;;;;20.78;42.24;99429.66;4963783;28;20105;-64
2022/12/13 03:40:14;;;;;;;39.35;15.45;;;;;;;21.16;41.52;99428.50;4964941;28;20054;-63
2022/12/13 03:42:58;;;;;;;31.17;15.77;;;;;;;21.42;40.30;99436.78;4963288;28;20046;-63
2022/12/13 03:45:53;;;;;;;31.83;16.20;;;;;;;22.14;39.41;99437.78;4963870;28;20162;-63
2022/12/13 03:48:28;;;;;;;29.67;16.17;;;;;;;22.52;38.46;99432.06;4963166;28;20129;-63
2022/12/13 03:51:18;;;;;;;37.15;17.75;;;;;;;22.39;38.70;99450.66;4964735;28;20054;-64
2022/12/13 03:54:00;;;;;;;31.67;17.63;;;;;;;23.30;37.62;99460.94;4959677;28;20058;-64
2022/12/13 03:56:49;;;;;;;42.85;17.83;;;;;;;23.16;36.92;99460.69;4962488;28;20106;-63
2022/12/13 03:59:38;;;;;;;37.58;17.50;;;;;;;23.29;36.47;99465.56;4965470;28;20077;-64
2022/12/13 04:02:27;;;;;;;31.38;17.02;;;;;;;23.60;37.08;99463.53;4964938;28;20058;-63
2022/12/13 04:05:16;;;;;;;43.05;18.25;;;;;;;23.74;37.38;99469.22;4959054;28;20054;-63
2022/12/13 04:07:59;;;;;;;41.65;16.90;;;;;;;23.67;36.89;99474.16;4940420;28;20586;-64
2022/12/13 04:14:03;;;;;;;34.55;16.42;;;;;;;23.06;37.92;99478.81;4963068;28;20087;-64
2022/12/13 04:17:02;;;;;;;35.10;17.92;;;;;;;23.56;37.12;99478.06;4952774;28;20051;-64
2022/12/13 04:19:44;;;;;;;65.32;25.02;;;;;;;23.59;36.62;99483.78;4955781;28;20053;-63
2022/12/13 04:22:33;;;;;;;46.83;23.73;;;;;;;23.71;37.40;99490.88;4967386;28;20845;-60
2022/12/13 04:25:15;;;;;;;49.17;24.67;;;;;;;24.02;37.90;99491.56;4948375;29;20541;-63
2022/12/13 04:28:04;;;;;;;53.08;24.30;;;;;;;23.59;37.64;99493.94;4968371;28;20058;-64
2022/12/13 04:30:46;;;;;;;39.63;21.67;;;;;;;23.96;39.09;99499.00;4967874;28;20636;-63
2022/12/13 04:33:35;;;;;;;55.83;21.90;;;;;;;23.85;37.38;99502.91;4968764;28;20055;-64
2022/12/13 04:36:18;;;;;;;39.50;21.38;;;;;;;23.42;38.34;99506.06;4968375;28;20051;-64
2022/12/13 04:39:12;;;;;;;35.25;18.58;;;;;;;23.08;38.63;99514.09;4964009;28;20054;-64
2022/12/13 04:42:03;;;;;;;38.75;19.38;;;;;;;23.38;38.83;99510.47;4952516;28;20063;-64
2022/12/13 04:44:53;;;;;;;37.45;18.00;;;;;;;22.94;38.76;99515.75;4960910;28;20061;-63
2022/12/13 04:47:35;;;;;;;49.03;18.73;;;;;;;23.30;39.48;99519.25;4967563;28;20137;-64
2022/12/13 04:50:25;;;;;;;30.35;16.58;;;;;;;22.69;38.95;99517.41;4969721;28;20146;-65
2022/12/13 04:53:07;;;;;;;39.90;17.23;;;;;;;22.49;39.19;99520.97;4952936;28;20438;-64
2022/12/13 04:55:56;;;;;;;34.78;17.40;;;;;;;22.17;39.59;99519.25;4969796;28;20436;-64
2022/12/13 04:58:38;;;;;;;34.58;17.00;;;;;;;22.56;39.66;99515.22;4969655;28;20054;-64
2022/12/13 05:01:27;;;;;;;34.78;17.42;;;;;;;22.66;39.65;99517.94;4957778;28;20136;-64
2022/12/13 05:04:09;;;;;;;38.20;18.10;;;;;;;22.47;40.30;99507.56;4967661;28;20055;-65
2022/12/13 05:06:58;;;;;;;41.50;18.73;;;;;;;22.66;40.18;99520.69;4969431;28;20396;-63
2022/12/13 05:09:40;;;;;;;44.05;19.98;;;;;;;22.39;41.30;99520.97;4954601;28;20050;-64
2022/12/13 05:12:29;;;;;;;40.03;19.02;;;;;;;22.32;40.19;99514.94;4968940;28;20062;-62
2022/12/13 05:15:11;;;;;;;41.72;19.08;;;;;;;22.08;41.60;99509.94;4962167;28;20058;-61
2022/12/13 05:18:00;;;;;;;37.13;18.83;;;;;;;22.04;41.11;99509.66;4967878;28;20510;-65
2022/12/13 05:20:51;;;;;;;41.80;18.90;;;;;;;22.48;41.38;99520.13;4950236;28;20055;-66
2022/12/13 05:23:34;;;;;;;30.90;17.67;;;;;;;22.19;40.49;99519.00;4966121;28;20058;-62
2022/12/13 05:26:29;;;;;;;39.13;18.17;;;;;;;22.52;40.47;99509.47;4950582;28;20121;-63
2022/12/13 05:29:04;;;;;;;35.47;18.52;;;;;;;22.55;40.77;99508.13;4967543;28;20065;-63
2022/12/13 05:31:54;;;;;;;35.25;18.17;;;;;;;22.68;40.80;99513.06;4960845;28;20082;-63
2022/12/13 05:34:36;;;;;;;34.47;16.42;;;;;;;22.56;40.23;99507.84;4968733;28;20495;-64
2022/12/13 05:37:26;;;;;;;36.42;16.35;;;;;;;22.63;40.50;99504.84;4967352;28;20062;-62
2022/12/13 05:40:15;;;;;;;38.20;14.45;;;;;;;22.83;39.88;99520.41;4948705;29;20070;-62
2022/12/13 05:42:57;;;;;;;24.00;13.40;;;;;;;23.14;39.88;99513.00;4949362;28;20047;-62
2022/12/13 05:46:02;;;;;;;28.70;13.82;;;;;;;23.59;40.08;99507.66;4955252;28;20094;-63
2022/12/13 05:48:44;;;;;;;36.10;13.57;;;;;;;23.54;39.59;99507.66;4967837;28;20577;-62
2022/12/13 05:51:33;;;;;;;31.42;13.90;;;;;;;23.43;39.27;99501.41;4968045;28;20154;-62
2022/12/13 05:54:15;;;;;;;31.17;14.35;;;;;;;23.29;38.93;99494.88;4966561;28;20051;-65
2022/12/13 05:57:04;;;;;;;25.67;14.02;;;;;;;23.41;38.60;99495.41;4968228;28;20046;-65
2022/12/13 05:59:46;;;;;;;36.80;15.52;;;;;;;23.65;38.05;99493.66;4968121;28;20073;-64
2022/12/13 06:02:46;;;;;;;29.90;14.15;;;;;;;24.13;37.21;99492.31;4967401;28;20042;-64
2022/12/13 06:05:29;;;;;;;24.73;13.40;;;;;;;24.08;38.60;99489.63;4967948;28;20113;-63
2022/12/13 06:08:18;;;;;;;30.67;14.35;;;;;;;23.82;37.93;99487.00;4965736;28;20050;-64
2022/12/13 06:11:06;;;;;;;29.20;14.68;;;;;;;24.31;38.18;99477.91;4964717;28;20621;-63
2022/12/13 06:14:13;;;;;;;32.63;16.30;;;;;;;24.06;39.41;99476.19;4946123;28;20109;-62
2022/12/13 06:17:03;;;;;;;30.95;14.70;;;;;;;24.41;38.02;99477.81;4967426;28;20140;-64
2022/12/13 06:19:52;;;;;;;33.17;15.63;;;;;;;24.07;39.37;99482.47;4966190;28;20633;-66
2022/12/13 06:22:34;;;;;;;30.85;14.98;;;;;;;24.38;37.76;99472.94;4966068;28;20047;-66
2022/12/13 06:25:23;;;;;;;31.02;13.60;;;;;;;24.44;37.34;99481.94;4964854;28;20051;-64
2022/12/13 06:28:12;;;;;;;27.25;14.10;;;;;;;24.25;37.54;99462.59;4966454;28;20475;-64
2022/12/13 06:31:01;;;;;;;28.30;13.43;;;;;;;24.12;37.41;99464.06;4963765;28;20133;-63
2022/12/13 06:33:43;;;;;;;25.08;13.07;;;;;;;24.33;37.80;99455.69;4964025;28;20058;-64
2022/12/13 06:36:32;;;;;;;31.08;13.55;;;;;;;24.68;38.44;99449.06;4962599;28;20121;-63
2022/12/13 06:39:14;;;;;;;27.60;12.07;;;;;;;25.14;36.36;99448.59;4947523;28;20047;-63
2022/12/13 06:42:04;;;;;;;27.00;12.45;;;;;;;24.84;35.50;99447.03;4963258;28;20446;-63
2022/12/13 06:44:50;;;;;;;31.48;11.10;;;;;;;24.65;36.08;99438.69;4962189;28;20078;-63
2022/12/13 06:47:39;;;;;;;20.52;10.43;;;;;;;25.03;35.54;99438.84;4962792;28;20070;-65
2022/12/13 06:50:28;;;;;;;36.03;13.32;;;;;;;24.69;35.56;99425.22;4963876;28;20130;-66
2022/12/13 06:53:17;;;;;;;27.10;11.55;;;;;;;24.61;36.12;99427.47;4964670;28;20605;-64
2022/12/13 06:56:09;;;;;;;22.58;11.05;;;;;;;25.18;36.53;99427.69;4966964;28;20058;-63
2022/12/13 06:58:51;;;;;;;22.02;10.63;;;;;;;25.20;36.16;99417.22;4964897;28;20490;-63
2022/12/13 07:01:48;;;;;;;21.63;9.60;;;;;;;24.93;35.91;99417.78;4964671;28;20784;-64
2022/12/13 07:04:24;;;;;;;18.73;9.13;;;;;;;25.39;35.39;99411.78;4962533;28;20050;-64
2022/12/13 07:07:14;;;;;;;17.33;8.32;;;;;;;25.02;35.04;99401.50;4963484;28;20050;-62
2022/12/13 07:10:03;;;;;;;17.73;8.50;;;;;;;24.57;35.78;99392.66;4947412;28;20046;-62
2022/12/13 07:12:46;;;;;;;16.60;8.88;;;;;;;24.62;35.80;99387.13;4962952;28;20546;-63
2022/12/13 07:15:36;;;;;;;22.42;8.82;;;;;;;24.81;35.51;99382.50;4962736;28;20077;-63
2022/12/13 07:18:18;;;;;;;20.60;9.98;;;;;;;24.62;35.83;99374.22;4964504;28;20685;-63
2022/12/13 07:21:09;;;;;;;15.40;8.35;;;;;;;25.31;35.29;99371.22;4964923;28;20158;-63
2022/12/13 07:24:02;;;;;;;19.17;8.13;;;;;;;25.15;36.11;99364.28;4964191;28;20059;-63
2022/12/13 07:26:51;;;;;;;19.13;7.93;;;;;;;25.23;35.68;99360.88;4962796;28;20050;-64
2022/12/13 07:29:40;;;;;;;17.55;7.78;;;;;;;25.09;34.86;99362.69;4962771;28;20154;-64
2022/12/13 07:32:23;;;;;;;16.87;8.20;;;;;;;25.37;35.25;99356.31;4963955;28;20050;-63
2022/12/13 07:35:12;;;;;;;16.45;8.23;;;;;;;25.53;36.25;99342.34;4963014;28;20114;-63
2022/12/13 07:37:54;;;;;;;12.23;8.10;;;;;;;25.07;36.50;99343.78;4963791;28;20058;-63
2022/12/13 07:40:45;;;;;;;21.92;7.82;;;;;;;25.01;35.98;99347.69;4964392;28;20182;-63
2022/12/13 07:43:28;;;;;;;14.02;7.63;;;;;;;24.74;35.32;99343.59;4961975;28;20082;-62
2022/12/13 07:46:17;;;;;;;17.60;6.97;;;;;;;24.54;36.37;99330.94;4963223;28;20137;-63
2022/12/13 07:49:06;;;;;;;19.85;6.72;;;;;;;24.54;36.30;99317.22;4963060;28;20061;-63
2022/12/13 07:51:55;;;;;;;14.13;7.30;;;;;;;24.38;36.32;99313.81;4961405;28;20141;-65
2022/12/13 07:54:39;;;;;;;14.85;7.30;;;;;;;24.78;35.95;99311.75;4962739;28;20458;-63
2022/12/13 07:57:34;;;;;;;15.93;6.43;;;;;;;24.65;36.23;99312.44;4946661;28;20058;-63
2022/12/13 08:00:10;;;;;;;13.23;7.05;;;;;;;24.48;35.76;99310.13;4963414;28;20043;-64
2022/12/13 08:03:07;;;;;;;21.10;7.68;;;;;;;24.39;36.26;99304.47;4974521;28;20145;-63
2022/12/13 08:06:10;;;;;;;18.65;7.72;;;;;;;24.87;36.25;99308.34;4964553;28;20050;-63
2022/12/13 08:08:59;;;;;;;17.05;7.30;;;;;;;24.59;36.77;99299.88;4963478;28;20055;-63
2022/12/13 08:11:41;;;;;;;12.38;7.07;;;;;;;24.40;35.85;99302.53;4963100;28;20113;-64
2022/12/13 08:14:30;;;;;;;15.23;6.80;;;;;;;24.72;35.88;99296.41;4964725;28;20543;-66
2022/12/13 08:17:12;;;;;;;13.70;6.65;;;;;;;24.46;36.45;99303.28;4965989;28;20046;-64
2022/12/13 08:20:07;;;;;;;11.48;6.97;;;;;;;24.37;36.36;99294.91;4964734;28;20078;-65
2022/12/13 08:22:43;;;;;;;12.70;7.03;;;;;;;24.46;36.56;99289.56;4964050;28;20062;-68
2022/12/13 08:25:48;;;;;;;22.17;7.43;;;;;;;24.42;36.23;99281.94;4965506;28;20108;-67
2022/12/13 08:28:27;;;;;;;18.13;7.13;;;;;;;24.63;35.95;99287.22;4962245;28;20061;-65
2022/12/13 08:31:16;;;;;;;19.83;8.65;;;;;;;24.86;36.19;99282.81;4961372;28;20038;-65
2022/12/13 08:33:58;;;;;;;16.48;8.23;;;;;;;25.22;36.31;99274.06;4963075;28;20534;-63
2022/12/13 08:36:47;;;;;;;10.90;7.55;;;;;;;25.35;37.10;99275.28;4954554;28;20081;-63
2022/12/13 08:39:29;;;;;;;16.27;8.27;;;;;;;24.80;37.71;99283.97;4965228;28;20050;-63
2022/12/13 08:42:25;;;;;;;19.70;8.27;;;;;;;24.72;38.44;99273.66;4965718;28;20056;-63
2022/12/13 08:45:14;;;;;;;18.55;7.85;;;;;;;24.85;35.82;99272.94;4965193;28;20190;-62
2022/12/13 08:48:04;;;;;;;12.63;7.95;;;;;;;24.35;36.41;99275.16;4965732;28;20062;-63
2022/12/13 08:50:46;;;;;;;18.20;8.13;;;;;;;24.34;37.23;99273.53;4962425;28;20079;-64
2022/12/13 08:53:35;;;;;;;15.02;8.68;;;;;;;24.31;36.08;99263.97;4962572;28;20620;-64
2022/12/13 08:56:21;;;;;;;13.18;6.75;;;;;;;24.55;36.17;99263.16;4962880;28;20086;-64
2022/12/13 08:59:10;;;;;;;17.92;7.25;;;;;;;24.60;36.11;99263.09;4963298;28;20073;-64
2022/12/13 09:01:56;;;;;;;20.98;9.05;;;;;;;24.65;35.71;99257.56;4956142;28;20055;-63
2022/12/13 09:04:45;;;;;;;16.83;6.32;;;;;;;24.40;36.05;99253.97;4955189;28;20075;-64
2022/12/13 09:07:41;;;;;;;14.45;7.43;;;;;;;24.79;36.67;99250.22;4965482;28;20124;-64
2022/12/13 09:10:24;;;;;;;15.00;7.00;;;;;;;24.78;35.51;99245.84;4966720;28;20047;-65
2022/12/13 09:13:20;;;;;;;19.70;7.57;;;;;;;24.59;36.60;99242.25;4967548;28;20051;-64
2022/12/13 09:16:15;;;;;;;20.97;7.80;;;;;;;24.66;36.36;99247.38;4966020;28;20502;-64
2022/12/13 09:19:05;;;;;;;15.10;7.33;;;;;;;24.60;36.39;99239.22;4967477;28;20617;-63
2022/12/13 09:22:06;;;;;;;20.05;7.60;;;;;;;24.69;36.46;99224.84;4967301;28;20122;-64
2022/12/13 09:24:55;;;;;;;15.70;8.43;;;;;;;24.88;36.68;99233.91;4952638;28;20847;-64
2022/12/13 09:27:43;;;;;;;18.63;7.82;;;;;;;24.71;36.39;99228.13;4956491;28;20568;-64
2022/12/13 09:30:32;;;;;;;16.58;7.20;;;;;;;24.65;36.63;99224.63;4967077;28;20579;-64
2022/12/13 09:33:14;;;;;;;12.80;6.75;;;;;;;24.86;36.79;99213.34;4963119;28;20134;-63
2022/12/13 09:36:16;;;;;;;13.05;7.00;;;;;;;24.92;36.76;99213.00;4965425;28;20051;-64
2022/12/13 09:39:06;;;;;;;18.92;6.95;;;;;;;24.66;36.53;99209.78;4967261;28;20058;-65
2022/12/13 09:42:04;;;;;;;17.05;7.13;;;;;;;24.73;36.47;99209.44;4966912;28;20050;-65
2022/12/13 09:44:57;;;;;;;12.48;6.85;;;;;;;24.47;36.17;99206.16;4966748;28;20047;-64
2022/12/13 09:47:52;;;;;;;19.42;6.97;;;;;;;24.46;36.45;99204.50;4964335;28;20054;-63
2022/12/13 09:50:51;;;;;;;25.25;7.55;;;;;;;24.42;37.39;99205.13;4966597;28;20691;-64
2022/12/13 09:53:50;;;;;;;18.73;7.13;;;;;;;24.57;36.83;99208.78;4966908;28;20050;-66
2022/12/13 09:56:49;;;;;;;13.07;6.65;;;;;;;24.75;36.36;99202.53;4963755;28;20050;-65
2022/12/13 09:59:31;;;;;;;15.93;7.30;;;;;;;24.78;36.74;99201.09;4966864;28;20486;-64
2022/12/13 10:02:34;;;;;;;18.33;6.35;;;;;;;24.16;35.80;99198.31;4963645;28;20090;-64
2022/12/13 10:05:29;;;;;;;14.75;6.35;;;;;;;24.36;36.16;99200.81;4963266;28;20061;-66
2022/12/13 10:08:29;;;;;;;21.95;7.18;;;;;;;24.29;36.33;99205.84;4963121;28;20086;-64
2022/12/13 10:11:12;;;;;;;17.77;5.97;;;;;;;24.28;35.92;99198.69;4966470;28;20478;-64
2022/12/13 10:14:19;;;;;;;13.25;6.10;;;;;;;24.47;36.10;99182.28;4965299;28;20059;-65
2022/12/13 10:17:06;;;;;;;19.80;6.30;;;;;;;24.38;36.47;99197.75;4950693;28;20480;-65
2022/12/13 10:20:01;;;;;;;14.20;6.25;;;;;;;23.98;36.52;99205.34;4965415;28;20050;-65
2022/12/13 10:22:36;;;;;;;16.35;6.78;;;;;;;24.14;36.63;99193.09;4962622;28;20752;-63
2022/12/13 10:25:53;;;;;;;15.75;7.10;;;;;;;24.18;36.96;99185.13;4950338;28;20113;-64
2022/12/13 10:28:43;;;;;;;19.23;6.55;;;;;;;24.18;37.02;99177.69;4964535;28;20050;-65
2022/12/13 10:31:56;;;;;;;23.13;6.05;;;;;;;24.69;37.14;99173.53;4964393;28;20054;-64
2022/12/13 10:34:43;;;;;;;14.82;7.18;;;;;;;24.69;36.78;99186.44;4966767;28;20058;-63
2022/12/13 10:37:39;;;;;;;19.13;7.55;;;;;;;24.34;37.48;99192.06;4965873;28;20062;-63
2022/12/13 10:40:34;;;;;;;17.60;7.40;;;;;;;24.57;37.22;99187.69;4964938;28;20545;-64
2022/12/13 10:43:34;;;;;;;19.20;7.50;;;;;;;24.62;37.37;99186.78;4965890;28;20109;-66
2022/12/13 10:46:23;;;;;;;21.73;7.68;;;;;;;23.93;37.29;99184.28;4964817;28;20039;-67
2022/12/13 10:49:30;;;;;;;11.80;6.63;;;;;;;24.13;36.59;99177.78;4964467;28;20471;-66
2022/12/13 10:52:32;;;;;;;14.80;7.77;;;;;;;23.80;36.94;99188.53;4947852;29;20055;-65
2022/12/13 10:55:37;;;;;;;20.40;7.68;;;;;;;23.87;36.52;99179.97;4962072;28;20438;-66
2022/12/13 10:58:35;;;;;;;17.17;7.65;;;;;;;24.07;36.94;99180.88;4963697;28;20050;-66
2022/12/13 11:01:29;;;;;;;21.55;7.53;;;;;;;23.91;37.48;99182.97;4967275;28;20050;-64
2022/12/13 11:04:31;;;;;;;18.67;7.75;;;;;;;23.72;37.64;99182.84;4966151;28;20118;-65
2022/12/13 11:07:37;;;;;;;19.90;7.95;;;;;;;23.81;38.13;99183.91;4949367;28;20449;-65
2022/12/13 11:10:27;;;;;;;20.25;8.43;;;;;;;23.80;38.01;99184.97;4950090;28;20497;-63
2022/12/13 11:13:31;;;;;;;20.85;9.45;;;;;;;23.52;38.62;99186.59;4962418;28;20051;-64
2022/12/13 11:16:40;;;;;;;16.40;8.45;;;;;;;23.49;39.40;99182.50;4962469;28;20153;-65
2022/12/13 11:19:50;;;;;;;26.98;9.73;;;;;;;23.52;39.28;99179.22;4963205;28;20077;-64
2022/12/13 11:22:36;;;;;;;26.80;9.65;;;;;;;23.26;40.18;99168.47;4962092;28;20050;-64
2022/12/13 11:25:32;;;;;;;21.48;9.85;;;;;;;23.00;40.71;99181.50;4963258;28;20055;-64
2022/12/13 11:28:39;;;;;;;20.02;9.20;;;;;;;23.10;40.24;99179.81;4959038;28;20067;-64
2022/12/13 11:31:25;;;;;;;25.42;10.23;;;;;;;23.21;40.19;99167.69;4961355;28;20052;-64
2022/12/13 11:34:45;;;;;;;20.70;10.23;;;;;;;23.25;40.18;99161.38;4962164;28;20415;-65
2022/12/13 11:37:53;;;;;;;17.65;10.10;;;;;;;23.17;41.71;99167.44;4964669;28;20482;-64
2022/12/13 11:40:46;;;;;;;21.58;10.00;;;;;;;23.04;41.54;99170.81;4962745;28;20529;-64
2022/12/13 11:43:47;;;;;;;22.63;10.40;;;;;;;22.87;41.71;99177.50;4948126;28;20042;-65
2022/12/13 11:46:36;;;;;;;29.85;11.15;;;;;;;22.81;43.97;99167.66;4965597;28;20105;-62
2022/12/13 11:49:29;;;;;;;28.15;10.48;;;;;;;;;;4963135;28;20050;-63
2022/12/13 11:52:30;;;;;;;23.98;10.45;;;;;;;22.71;45.85;99165.00;4964827;28;20054;-62
2022/12/13 11:55:32;;;;;;;34.85;11.55;;;;;;;22.56;46.56;99173.28;4962324;28;20055;-65
2022/12/13 11:58:42;;;;;;;23.83;11.30;;;;;;;22.37;45.03;99162.97;4962584;28;20522;-64
2022/12/13 12:02:02;;;;;;;31.50;11.55;;;;;;;22.33;50.20;99172.84;4974628;28;20137;-63
2022/12/13 12:05:02;;;;;;;31.45;12.85;;;;;;;22.23;51.47;99173.69;4961147;28;20055;-64
2022/12/13 12:08:15;;;;;;;25.60;11.88;;;;;;;22.05;51.92;99177.84;4963577;28;20058;-63
2022/12/13 12:11:47;;;;;;;24.10;12.00;;;;;;;21.91;51.78;99174.06;4961896;28;20054;-61
2022/12/13 12:15:14;;;;;;;23.95;13.82;;;;;;;21.90;51.53;99164.25;4963806;28;20185;-63
2022/12/13 12:18:07;;;;;;;28.85;13.43;;;;;;;21.79;52.75;99163.44;4947942;28;20050;-64
2022/12/13 12:21:09;;;;;;;24.17;13.35;;;;;;;21.75;50.93;99162.34;4963788;28;20051;-64
2022/12/13 12:24:09;;;;;;;27.63;12.95;;;;;;;21.68;49.51;99161.81;4962602;28;20063;-63
2022/12/13 12:27:46;;;;;;;26.67;13.43;;;;;;;21.56;52.10;99164.84;4962937;28;20121;-64
2022/12/13 12:30:26;;;;;;;31.63;15.10;;;;;;;21.35;52.69;99174.13;4952975;28;20059;-61
2022/12/13 12:33:27;;;;;;;28.85;13.88;;;;;;;21.24;53.86;99174.09;4963849;28;20054;-62
2022/12/13 12:36:24;;;;;;;35.83;13.73;;;;;;;21.22;53.77;99179.03;4962167;28;20072;-63
2022/12/13 12:39:45;;;;;;;33.17;14.10;;;;;;;21.12;53.65;99179.03;4618749;28;9999979;-60
2022/12/13 12:43:10;;;;;;;30.30;14.38;;;;;;;21.00;54.14;99183.91;4957824;28;20058;-61
2022/12/13 12:46:15;;;;;;;39.03;14.55;;;;;;;20.84;54.88;99185.81;4963691;28;20170;-63
2022/12/13 12:49:21;;;;;;;38.10;15.07;;;;;;;20.76;54.48;99184.44;4960235;28;20682;-62
2022/12/13 12:52:24;;;;;;;37.60;14.48;;;;;;;20.64;53.95;99181.16;4970969;28;20043;-65
2022/12/13 12:55:19;;;;;;;32.08;15.18;;;;;;;20.66;54.02;99195.31;4966082;28;20080;-62
2022/12/13 12:58:17;;;;;;;31.38;15.07;;;;;;;20.48;55.51;99194.69;4968041;28;20510;-63
2022/12/13 13:01:01;;;;;;;30.02;15.48;;;;;;;20.39;55.12;99198.19;4968685;28;20047;-66
2022/12/13 13:03:54;;;;;;;32.53;16.77;;;;;;;20.30;55.75;99193.25;4963916;28;20857;-61
2022/12/13 13:07:01;;;;;;;30.63;14.65;;;;;;;20.28;54.43;99192.69;4952329;28;20069;-62
2022/12/13 13:09:38;;;;;;;26.23;16.02;;;;;;;20.21;56.43;99194.03;4966080;28;20046;-63
2022/12/13 13:12:37;;;;;;;33.08;16.40;;;;;;;20.23;55.85;99200.84;4967102;28;20061;-62
2022/12/13 13:15:31;;;;;;;31.48;16.65;;;;;;;20.23;55.74;99200.84;4966877;28;20054;-64
2022/12/13 13:18:57;;;;;;;36.17;17.35;;;;;;;20.14;55.84;99197.81;4967220;28;20097;-62
2022/12/13 13:22:05;;;;;;;36.05;17.85;;;;;;;20.12;55.96;99199.19;4949533;28;20668;-64
2022/12/13 13:25:39;;;;;;;46.78;18.30;;;;;;;20.09;56.18;99199.69;4963577;28;20111;-63